Terminal Aerodrome Forecast
Issued by NWS

Home | Current Version | Previous Version | Text Only | Print | Product List | Glossary Off
Versions: 1 2 3 4 5 6 7 8 9 10 11 12 13 14

390
FTUS43 KICT 182341
TAFRSL
TAF
KRSL 182341Z 1900/1924 18015G22KT P6SM SCT070 BKN250
     FM190200 17010KT P6SM SCT070 BKN250
     FM191400 20015G22KT P6SM SKC
     FM191800 23018G28KT P6SM SKC=

USA.gov is the U.S. government's official web portal to all federal, state and local government web resources and services.